Terminal Aerodrome Forecast
Issued by NWS

Home | Current Version | Previous Version | Text Only | Print | Product List | Glossary On
Versions: 1 2 3 4 5 6 7 8 9 10 11 12 13 14 15 16 17 18 19 20 21 22 23 24 25 26 27 28 29 30
000
FTAK31 PAFA 260821 AAA
TAFAOM
TAF AMD
PAOM 260821Z 2608/2706 19008KT 1/2SM FG VV002
     FM262000 15006KT 1SM BR OVC008=

USA.gov is the U.S. government's official web portal to all federal, state and local government web resources and services.